createdAt,value
2018-12-27T00:00:25.806Z,19.60
2018-12-27T00:01:01.249Z,19.55
2018-12-27T00:01:36.675Z,16.95
2018-12-27T00:02:12.107Z,16.50
2018-12-27T00:02:54.626Z,15.68
2018-12-27T00:03:24.586Z,15.60
2018-12-27T00:04:00.014Z,17.57
2018-12-27T00:04:35.706Z,17.73
2018-12-27T00:05:11.086Z,18.55
2018-12-27T00:05:46.577Z,19.60
2018-12-27T00:06:22.345Z,19.00
2018-12-27T00:06:57.795Z,17.20
2018-12-27T00:07:33.333Z,18.00
2018-12-27T00:08:08.671Z,17.95
2018-12-27T00:08:44.202Z,18.23
2018-12-27T00:09:19.731Z,20.30
2018-12-27T00:09:55.244Z,16.87
2018-12-27T00:10:30.779Z,17.07
2018-12-27T00:11:06.240Z,16.10
2018-12-27T00:11:41.764Z,16.73
2018-12-27T00:12:17.194Z,13.98
2018-12-27T00:12:52.633Z,17.05
2018-12-27T00:13:28.079Z,18.30
2018-12-27T00:14:04.074Z,15.08
2018-12-27T00:14:39.603Z,15.75
2018-12-27T00:15:15.139Z,16.17
2018-12-27T00:15:50.599Z,14.85
2018-12-27T00:16:26.143Z,16.70
2018-12-27T00:17:01.553Z,16.57
2018-12-27T00:17:37.089Z,15.68
2018-12-27T00:18:12.518Z,16.00
2018-12-27T00:18:48.134Z,15.85
2018-12-27T00:19:23.680Z,16.77
2018-12-27T00:19:59.130Z,18.15
2018-12-27T00:20:34.755Z,17.75
2018-12-27T00:21:10.305Z,16.02
2018-12-27T00:21:45.622Z,15.95
2018-12-27T00:22:21.378Z,17.40
2018-12-27T00:22:56.899Z,13.43
2018-12-27T00:23:32.787Z,15.60
2018-12-27T00:24:08.330Z,15.98
2018-12-27T00:24:43.788Z,14.83
2018-12-27T00:25:20.451Z,14.47
2018-12-27T00:25:56.254Z,16.82
2018-12-27T00:26:31.730Z,14.33
2018-12-27T00:27:07.163Z,16.50
2018-12-27T00:27:42.711Z,17.42
2018-12-27T00:28:18.425Z,15.75
2018-12-27T00:28:53.845Z,16.67
2018-12-27T00:29:29.298Z,16.97
2018-12-27T00:30:04.930Z,16.30
2018-12-27T00:30:40.529Z,16.65
2018-12-27T00:31:16.039Z,17.42
2018-12-27T00:31:51.699Z,11.38
2018-12-27T00:32:27.384Z,15.72
2018-12-27T00:33:03.261Z,16.25
2018-12-27T00:33:39.200Z,17.35
2018-12-27T00:34:14.836Z,17.75
2018-12-27T00:34:50.461Z,15.00
2018-12-27T00:35:26.118Z,18.87
2018-12-27T00:36:01.635Z,18.40
2018-12-27T00:36:37.314Z,21.23
2018-12-27T00:37:12.795Z,16.07
2018-12-27T00:37:48.486Z,13.75
2018-12-27T00:38:24.388Z,18.17
2018-12-27T00:39:00.128Z,18.20
2018-12-27T00:39:35.877Z,19.05
2018-12-27T00:40:11.506Z,18.45
2018-12-27T00:40:47.083Z,19.60
2018-12-27T00:41:22.694Z,18.23
2018-12-27T00:41:58.330Z,18.27
2018-12-27T00:42:34.244Z,18.30
2018-12-27T00:43:09.790Z,21.02
2018-12-27T00:43:45.402Z,18.42
2018-12-27T00:44:21.266Z,19.95
2018-12-27T00:44:57.342Z,21.75
2018-12-27T00:45:32.884Z,20.10
2018-12-27T00:46:08.373Z,20.10
2018-12-27T00:46:43.902Z,20.75
2018-12-27T00:47:19.442Z,21.12
2018-12-27T00:47:54.977Z,20.05
2018-12-27T00:48:30.590Z,21.77
2018-12-27T00:49:06.244Z,20.00
2018-12-27T00:49:42.100Z,23.10
2018-12-27T00:50:17.837Z,21.90
2018-12-27T00:50:53.343Z,20.82
2018-12-27T00:51:28.882Z,20.30
2018-12-27T00:52:04.666Z,21.85
2018-12-27T00:52:40.148Z,22.87
2018-12-27T00:53:15.710Z,26.17
2018-12-27T00:53:51.311Z,24.20
2018-12-27T00:54:27.126Z,21.65
2018-12-27T00:55:02.774Z,22.25
2018-12-27T00:55:38.436Z,23.42
2018-12-27T00:56:14.056Z,23.80
2018-12-27T00:56:49.577Z,22.00
2018-12-27T00:57:25.160Z,23.32
2018-12-27T00:58:00.655Z,22.55
2018-12-27T00:58:36.315Z,23.75
2018-12-27T00:59:11.841Z,22.35
2018-12-27T00:59:47.574Z,21.80
2018-12-27T01:00:23.284Z,23.10
2018-12-27T01:00:59.056Z,21.40
2018-12-27T01:01:35.613Z,22.45
2018-12-27T01:02:11.104Z,22.27
2018-12-27T01:02:46.540Z,22.75
2018-12-27T01:03:22.310Z,21.45
2018-12-27T01:03:57.995Z,23.38
2018-12-27T01:04:33.573Z,26.00
2018-12-27T01:05:10.316Z,25.12
2018-12-27T01:05:46.114Z,25.50
2018-12-27T01:06:21.622Z,26.87
2018-12-27T01:06:57.139Z,27.65
2018-12-27T01:07:32.674Z,24.85
2018-12-27T01:08:08.317Z,22.90
2018-12-27T01:08:43.931Z,24.30
2018-12-27T01:09:19.686Z,23.22
2018-12-27T01:09:55.312Z,23.75
2018-12-27T01:10:31.279Z,24.87
2018-12-27T01:11:07.215Z,23.12
2018-12-27T01:11:42.730Z,25.97
2018-12-27T01:12:18.243Z,25.43
2018-12-27T01:12:53.748Z,23.05
2018-12-27T01:13:29.687Z,25.10
2018-12-27T01:14:05.278Z,22.02
2018-12-27T01:14:40.914Z,27.17
2018-12-27T01:15:16.454Z,28.92
2018-12-27T01:15:51.983Z,29.48
2018-12-27T01:16:28.132Z,27.52
2018-12-27T01:17:03.867Z,26.90
2018-12-27T01:17:39.915Z,27.82
2018-12-27T01:18:15.605Z,28.35
2018-12-27T01:18:51.084Z,28.10
2018-12-27T01:19:26.703Z,29.67
2018-12-27T01:20:02.333Z,23.38
2018-12-27T01:20:38.143Z,26.52
2018-12-27T01:21:13.839Z,27.17
2018-12-27T01:21:49.453Z,27.45
2018-12-27T01:22:25.126Z,27.82
2018-12-27T01:23:01.174Z,29.55
2018-12-27T01:23:36.703Z,27.70
2018-12-27T01:24:12.562Z,28.15
2018-12-27T01:24:48.331Z,29.35
2018-12-27T01:25:23.990Z,28.07
2018-12-27T01:25:59.726Z,30.30
2018-12-27T01:26:35.375Z,28.40
2018-12-27T01:27:10.899Z,30.23
2018-12-27T01:27:46.621Z,29.07
2018-12-27T01:28:22.175Z,27.73
2018-12-27T01:28:57.660Z,28.10
2018-12-27T01:29:33.250Z,27.95
2018-12-27T01:30:08.913Z,28.07
2018-12-27T01:30:44.366Z,30.15
2018-12-27T01:31:19.911Z,27.80
2018-12-27T01:31:55.567Z,29.18
2018-12-27T01:32:31.126Z,24.67
2018-12-27T01:33:06.610Z,29.77
2018-12-27T01:33:42.287Z,26.62
2018-12-27T01:34:17.926Z,29.80
2018-12-27T01:34:53.623Z,28.25
2018-12-27T01:35:29.191Z,31.27
2018-12-27T01:36:04.691Z,33.08
2018-12-27T01:36:40.211Z,30.27
2018-12-27T01:37:15.879Z,29.65
2018-12-27T01:37:51.398Z,28.83
2018-12-27T01:38:27.087Z,34.03
2018-12-27T01:39:02.664Z,33.50
2018-12-27T01:39:38.174Z,31.42
2018-12-27T01:40:13.745Z,31.57
2018-12-27T01:40:49.390Z,33.50
2018-12-27T01:41:24.907Z,29.07
2018-12-27T01:42:00.409Z,26.73
2018-12-27T01:42:36.131Z,26.68
2018-12-27T01:43:11.653Z,30.92
2018-12-27T01:43:47.204Z,30.52
2018-12-27T01:44:22.766Z,24.45
2018-12-27T01:44:58.385Z,28.60
2018-12-27T01:45:33.916Z,28.15
2018-12-27T01:46:09.886Z,29.65
2018-12-27T01:46:45.531Z,32.28
2018-12-27T01:47:21.036Z,31.10
2018-12-27T01:47:56.709Z,31.48
2018-12-27T01:48:32.608Z,29.15
2018-12-27T01:49:08.054Z,33.10
2018-12-27T01:49:43.589Z,32.15
2018-12-27T01:50:19.359Z,32.00
2018-12-27T01:50:54.974Z,32.75
2018-12-27T01:51:30.461Z,27.70
2018-12-27T01:52:05.936Z,30.08
2018-12-27T01:52:41.477Z,27.50
2018-12-27T01:53:17.222Z,30.70
2018-12-27T01:53:52.842Z,29.80
2018-12-27T01:54:28.490Z,31.02
2018-12-27T01:55:04.291Z,28.95
2018-12-27T01:55:39.843Z,29.45
2018-12-27T01:56:15.515Z,27.32
2018-12-27T01:56:50.994Z,31.42
2018-12-27T01:57:27.183Z,28.45
2018-12-27T01:58:02.869Z,30.62
2018-12-27T01:58:38.327Z,31.60
2018-12-27T01:59:13.961Z,30.70
2018-12-27T01:59:49.495Z,28.90
2018-12-27T02:00:25.787Z,28.80
2018-12-27T02:01:01.266Z,31.68
2018-12-27T02:01:36.907Z,33.48
2018-12-27T02:02:12.667Z,32.85
2018-12-27T02:02:48.165Z,33.40
2018-12-27T02:03:26.624Z,30.90
2018-12-27T02:04:02.308Z,31.15
2018-12-27T02:04:37.965Z,29.90
2018-12-27T02:05:14.025Z,24.90
2018-12-27T02:05:49.549Z,26.45
2018-12-27T02:06:25.447Z,30.62
2018-12-27T02:07:00.986Z,29.72
2018-12-27T02:07:36.756Z,31.50
2018-12-27T02:08:12.393Z,31.17
2018-12-27T02:08:48.011Z,31.30
2018-12-27T02:09:23.650Z,32.08
2018-12-27T02:09:59.226Z,32.58
2018-12-27T02:10:34.721Z,30.72
2018-12-27T02:11:10.258Z,31.62
2018-12-27T02:11:45.823Z,27.70
2018-12-27T02:12:21.936Z,32.10
2018-12-27T02:12:57.680Z,29.45
2018-12-27T02:13:33.226Z,29.48
2018-12-27T02:14:08.729Z,27.37
2018-12-27T02:14:44.210Z,27.58
2018-12-27T02:15:19.718Z,27.42
2018-12-27T02:15:55.211Z,26.40
2018-12-27T02:16:30.841Z,29.75
2018-12-27T02:17:06.534Z,31.55
2018-12-27T02:17:42.413Z,26.90
2018-12-27T02:18:18.031Z,30.35
2018-12-27T02:18:53.642Z,26.30
2018-12-27T02:19:29.133Z,30.90
2018-12-27T02:20:04.666Z,33.02
2018-12-27T02:20:40.394Z,32.95
2018-12-27T02:21:15.949Z,34.00
2018-12-27T02:21:51.370Z,37.40
2018-12-27T02:22:27.015Z,33.10
2018-12-27T02:23:03.371Z,33.00
2018-12-27T02:23:39.148Z,29.25
2018-12-27T02:24:14.735Z,30.75
2018-12-27T02:24:50.472Z,33.75
2018-12-27T02:25:26.058Z,30.75
2018-12-27T02:26:01.580Z,34.15
2018-12-27T02:26:37.094Z,32.80
2018-12-27T02:27:12.593Z,33.58
2018-12-27T02:27:48.242Z,31.55
2018-12-27T02:28:23.776Z,32.48
2018-12-27T02:28:59.410Z,35.17
2018-12-27T02:29:34.970Z,34.53
2018-12-27T02:30:10.596Z,33.67
2018-12-27T02:30:46.203Z,32.33
2018-12-27T02:31:21.706Z,39.45
2018-12-27T02:31:57.191Z,34.50
2018-12-27T02:32:32.764Z,35.98
2018-12-27T02:33:08.351Z,37.67
2018-12-27T02:33:44.041Z,37.93
2018-12-27T02:34:19.543Z,33.78
2018-12-27T02:34:55.127Z,31.93
2018-12-27T02:35:30.782Z,36.40
2018-12-27T02:36:06.278Z,33.73
2018-12-27T02:36:41.730Z,25.12
2018-12-27T02:37:17.293Z,32.67
2018-12-27T02:37:53.334Z,35.65
2018-12-27T02:38:28.970Z,36.03
2018-12-27T02:39:05.150Z,33.98
2018-12-27T02:39:40.755Z,31.87
2018-12-27T02:40:16.381Z,38.05
2018-12-27T02:40:51.951Z,35.90
2018-12-27T02:41:27.656Z,41.37
2018-12-27T02:42:03.166Z,37.50
2018-12-27T02:42:38.838Z,37.10
2018-12-27T02:43:14.467Z,37.00
2018-12-27T02:43:50.159Z,32.48
2018-12-27T02:44:25.758Z,35.10
2018-12-27T02:45:01.243Z,35.08
2018-12-27T02:45:37.196Z,37.13
2018-12-27T02:46:12.641Z,35.08
2018-12-27T02:46:48.246Z,35.75
2018-12-27T02:47:23.747Z,37.05
2018-12-27T02:47:59.366Z,37.70
2018-12-27T02:48:34.850Z,38.25
2018-12-27T02:49:10.820Z,37.08
2018-12-27T02:49:46.456Z,38.35
2018-12-27T02:50:22.105Z,38.88
2018-12-27T02:50:58.956Z,37.23
2018-12-27T02:51:34.487Z,37.13
2018-12-27T02:52:10.097Z,34.75
2018-12-27T02:52:45.761Z,37.60
2018-12-27T02:53:21.268Z,36.42
2018-12-27T02:53:56.902Z,35.13
2018-12-27T02:54:32.946Z,35.80
2018-12-27T02:55:08.534Z,35.63
2018-12-27T02:55:44.053Z,36.30
2018-12-27T02:56:19.564Z,35.43
2018-12-27T02:56:55.507Z,37.70
2018-12-27T02:57:31.093Z,37.85
2018-12-27T02:58:06.562Z,38.33
2018-12-27T02:58:42.319Z,39.30
2018-12-27T02:59:17.848Z,39.92
2018-12-27T02:59:53.577Z,40.60
2018-12-27T03:00:29.830Z,36.25
2018-12-27T03:01:05.343Z,33.78
2018-12-27T03:01:40.963Z,32.85
2018-12-27T03:02:16.430Z,36.75
2018-12-27T03:02:52.557Z,37.98
2018-12-27T03:03:28.114Z,35.70
2018-12-27T03:04:03.742Z,36.35
2018-12-27T03:04:39.321Z,36.85
2018-12-27T03:05:14.755Z,39.60
2018-12-27T03:05:50.277Z,37.00
2018-12-27T03:06:25.910Z,38.98
2018-12-27T03:07:01.378Z,38.28
2018-12-27T03:07:36.925Z,36.98
2018-12-27T03:08:12.523Z,39.75
2018-12-27T03:08:48.019Z,36.80
2018-12-27T03:09:23.659Z,31.75
2018-12-27T03:09:59.243Z,36.95
2018-12-27T03:10:35.097Z,37.70
2018-12-27T03:11:10.790Z,33.05
2018-12-27T03:11:46.390Z,36.60
2018-12-27T03:12:22.026Z,38.40
2018-12-27T03:12:57.686Z,35.35
2018-12-27T03:13:33.258Z,39.23
2018-12-27T03:14:08.859Z,39.18
2018-12-27T03:14:44.427Z,38.58
2018-12-27T03:15:19.977Z,38.17
2018-12-27T03:15:55.522Z,37.53
2018-12-27T03:16:31.100Z,39.10
2018-12-27T03:17:06.699Z,40.63
2018-12-27T03:17:42.733Z,38.00
2018-12-27T03:18:18.279Z,37.23
2018-12-27T03:18:53.869Z,36.68
2018-12-27T03:19:29.432Z,38.08
2018-12-27T03:20:05.283Z,38.98
2018-12-27T03:20:40.927Z,35.65
2018-12-27T03:21:16.535Z,38.75
2018-12-27T03:21:52.086Z,39.67
2018-12-27T03:22:27.615Z,35.35
2018-12-27T03:23:03.187Z,38.85
2018-12-27T03:23:38.666Z,37.98
2018-12-27T03:24:14.528Z,34.15
2018-12-27T03:24:50.088Z,40.38
2018-12-27T03:25:25.667Z,34.13
2018-12-27T03:26:01.323Z,39.53
2018-12-27T03:26:36.768Z,36.03
2018-12-27T03:27:12.392Z,36.42
2018-12-27T03:27:48.020Z,39.55
2018-12-27T03:28:23.679Z,39.23
2018-12-27T03:28:59.183Z,34.65
2018-12-27T03:29:34.750Z,38.25
2018-12-27T03:30:10.513Z,40.08
2018-12-27T03:30:46.000Z,40.17
2018-12-27T03:31:21.523Z,36.77
2018-12-27T03:31:58.158Z,38.48
2018-12-27T03:32:33.770Z,37.70
2018-12-27T03:33:09.575Z,33.98
2018-12-27T03:33:52.491Z,35.35
2018-12-27T03:34:22.444Z,37.65
2018-12-27T03:34:57.878Z,39.48
2018-12-27T03:35:33.511Z,39.63
2018-12-27T03:36:09.217Z,39.98
2018-12-27T03:36:44.812Z,43.42
2018-12-27T03:37:20.426Z,42.40
2018-12-27T03:37:56.043Z,42.88
2018-12-27T03:38:31.707Z,39.38
2018-12-27T03:39:08.178Z,43.60
2018-12-27T03:39:43.836Z,41.50
2018-12-27T03:40:19.436Z,42.00
2018-12-27T03:40:55.471Z,41.15
2018-12-27T03:41:31.204Z,45.98
2018-12-27T03:42:06.756Z,44.20
2018-12-27T03:42:42.335Z,44.25
2018-12-27T03:43:17.886Z,49.25
2018-12-27T03:43:53.401Z,41.55
2018-12-27T03:44:28.896Z,44.88
2018-12-27T03:45:04.433Z,49.40
2018-12-27T03:45:39.939Z,47.35
2018-12-27T03:46:15.475Z,45.60
2018-12-27T03:46:51.042Z,44.50
2018-12-27T03:47:26.544Z,46.92
2018-12-27T03:48:02.201Z,45.63
2018-12-27T03:48:37.718Z,46.08
2018-12-27T03:49:13.331Z,43.60
2018-12-27T03:49:48.881Z,46.73
2018-12-27T03:50:24.503Z,42.78
2018-12-27T03:50:59.934Z,47.05
2018-12-27T03:51:35.485Z,44.03
2018-12-27T03:52:11.019Z,47.48
2018-12-27T03:52:46.682Z,45.58
2018-12-27T03:53:22.267Z,47.03
2018-12-27T03:53:58.288Z,43.17
2018-12-27T03:54:33.773Z,44.03
2018-12-27T03:55:09.307Z,47.20
2018-12-27T03:55:45.041Z,40.80
2018-12-27T03:56:20.691Z,46.80
2018-12-27T03:56:56.280Z,47.13
2018-12-27T03:57:32.160Z,47.80
2018-12-27T03:58:07.675Z,49.80
2018-12-27T03:58:43.299Z,49.73
2018-12-27T03:59:18.835Z,52.75
2018-12-27T03:59:54.452Z,50.23
2018-12-27T04:00:30.111Z,52.98
2018-12-27T04:01:06.166Z,44.50
2018-12-27T04:01:41.671Z,47.62
2018-12-27T04:02:17.223Z,53.20
2018-12-27T04:02:53.271Z,46.00
2018-12-27T04:03:28.923Z,51.37
2018-12-27T04:04:04.627Z,46.63
2018-12-27T04:04:40.248Z,46.30
2018-12-27T04:05:15.853Z,46.68
2018-12-27T04:05:51.670Z,49.27
2018-12-27T04:06:27.288Z,41.28
2018-12-27T04:07:02.822Z,49.80
2018-12-27T04:07:38.340Z,47.65
2018-12-27T04:08:13.883Z,47.30
2018-12-27T04:08:49.444Z,43.78
2018-12-27T04:09:25.043Z,48.98
2018-12-27T04:10:00.743Z,48.75
2018-12-27T04:10:36.322Z,48.60
2018-12-27T04:11:11.864Z,45.88
2018-12-27T04:11:47.487Z,48.15
2018-12-27T04:12:23.024Z,48.87
2018-12-27T04:12:58.643Z,48.65
2018-12-27T04:13:34.401Z,49.70
2018-12-27T04:14:10.020Z,52.15
2018-12-27T04:14:45.760Z,52.40
2018-12-27T04:15:21.321Z,51.42
2018-12-27T04:15:56.753Z,51.53
2018-12-27T04:16:32.608Z,52.10
2018-12-27T04:17:08.043Z,50.80
2018-12-27T04:17:43.484Z,55.30
2018-12-27T04:18:18.914Z,52.73
2018-12-27T04:18:54.679Z,56.55
2018-12-27T04:19:31.772Z,57.27
2018-12-27T04:20:07.510Z,55.80
2018-12-27T04:20:42.968Z,50.65
2018-12-27T04:21:18.615Z,51.30
2018-12-27T04:21:54.048Z,50.25
2018-12-27T04:22:29.687Z,53.30
2018-12-27T04:23:05.199Z,52.53
2018-12-27T04:23:42.438Z,53.17
2018-12-27T04:24:20.469Z,52.35
2018-12-27T04:24:56.149Z,52.23
2018-12-27T04:25:32.491Z,51.68
2018-12-27T04:26:08.286Z,49.65
2018-12-27T04:26:43.858Z,49.08
2018-12-27T04:27:19.274Z,50.38
2018-12-27T04:27:54.814Z,49.03
2018-12-27T04:28:30.430Z,47.48
2018-12-27T04:29:06.150Z,48.23
2018-12-27T04:29:41.785Z,50.92
2018-12-27T04:30:17.587Z,45.45
2018-12-27T04:30:53.071Z,47.60
2018-12-27T04:31:29.009Z,46.40
2018-12-27T04:32:04.538Z,48.68
2018-12-27T04:32:41.296Z,49.75
2018-12-27T04:33:18.600Z,44.53
2018-12-27T04:33:54.639Z,47.73
2018-12-27T04:34:30.960Z,48.73
2018-12-27T04:35:06.713Z,46.75
2018-12-27T04:35:42.459Z,46.00
2018-12-27T04:36:18.383Z,40.70
2018-12-27T04:36:54.841Z,46.23
2018-12-27T04:37:30.298Z,46.40
2018-12-27T04:38:05.720Z,42.62
2018-12-27T04:38:41.414Z,44.33
2018-12-27T04:39:17.378Z,45.83
2018-12-27T04:39:52.967Z,47.65
2018-12-27T04:40:28.936Z,47.20
2018-12-27T04:41:04.599Z,48.08
2018-12-27T04:41:40.476Z,45.78
2018-12-27T04:42:16.501Z,46.75
2018-12-27T04:42:52.542Z,39.33
2018-12-27T04:43:28.267Z,43.63
2018-12-27T04:44:04.373Z,43.80
2018-12-27T04:44:40.229Z,41.13
2018-12-27T04:45:15.813Z,44.35
2018-12-27T04:45:51.446Z,43.58
2018-12-27T04:46:26.997Z,44.20
2018-12-27T04:47:02.387Z,42.60
2018-12-27T04:47:37.738Z,37.23
2018-12-27T04:48:13.167Z,39.88
2018-12-27T04:48:48.471Z,40.33
2018-12-27T04:49:24.074Z,41.05
2018-12-27T04:49:59.521Z,42.05
2018-12-27T04:50:34.978Z,42.35
2018-12-27T04:51:10.435Z,43.52
2018-12-27T04:51:46.025Z,41.55
2018-12-27T04:52:21.665Z,41.30
2018-12-27T04:52:57.022Z,40.73
2018-12-27T04:53:32.684Z,41.02
2018-12-27T04:54:08.273Z,40.48
2018-12-27T04:54:43.809Z,41.63
2018-12-27T04:55:19.230Z,38.65
2018-12-27T04:55:54.790Z,36.23
2018-12-27T04:56:30.344Z,35.30
2018-12-27T04:57:06.126Z,36.98
2018-12-27T04:57:41.572Z,36.55
2018-12-27T04:58:17.128Z,34.98
2018-12-27T04:58:52.446Z,36.45
2018-12-27T04:59:28.007Z,32.85
2018-12-27T05:00:03.584Z,35.52
2018-12-27T05:00:39.040Z,34.13
2018-12-27T05:01:14.463Z,35.50
2018-12-27T05:01:49.925Z,33.75
2018-12-27T05:02:26.593Z,34.23
2018-12-27T05:03:02.779Z,29.65
2018-12-27T05:03:38.736Z,35.85
2018-12-27T05:04:18.099Z,34.88
2018-12-27T05:04:51.590Z,34.18
2018-12-27T05:05:27.193Z,34.92
2018-12-27T05:06:02.842Z,37.53
2018-12-27T05:06:38.458Z,39.08
2018-12-27T05:07:13.935Z,33.90
2018-12-27T05:07:49.495Z,38.92
2018-12-27T05:08:24.970Z,38.42
2018-12-27T05:09:00.629Z,38.08
2018-12-27T05:09:36.131Z,39.35
2018-12-27T05:10:11.543Z,36.70
2018-12-27T05:10:47.331Z,37.75
2018-12-27T05:11:23.244Z,40.65
2018-12-27T05:11:58.680Z,35.50
2018-12-27T05:12:34.100Z,35.90
2018-12-27T05:13:09.503Z,37.38
2018-12-27T05:13:45.044Z,39.98
2018-12-27T05:14:20.600Z,39.65
2018-12-27T05:14:56.019Z,39.78
2018-12-27T05:15:31.725Z,37.65
2018-12-27T05:16:07.669Z,35.60
2018-12-27T05:16:43.130Z,37.73
2018-12-27T05:17:18.791Z,36.70
2018-12-27T05:17:54.354Z,37.00
2018-12-27T05:18:30.533Z,37.05
2018-12-27T05:19:05.869Z,38.42
2018-12-27T05:19:41.436Z,38.83
2018-12-27T05:20:16.949Z,38.55
2018-12-27T05:20:52.256Z,36.73
2018-12-27T05:21:28.088Z,39.08
2018-12-27T05:22:03.644Z,41.08
2018-12-27T05:22:39.084Z,41.20
2018-12-27T05:23:14.551Z,38.58
2018-12-27T05:23:50.043Z,39.70
2018-12-27T05:24:25.560Z,35.78
2018-12-27T05:25:01.707Z,36.60
2018-12-27T05:25:37.280Z,37.73
2018-12-27T05:26:12.690Z,36.80
2018-12-27T05:26:48.303Z,40.63
2018-12-27T05:27:23.935Z,38.28
2018-12-27T05:27:59.465Z,33.38
2018-12-27T05:28:34.912Z,39.35
2018-12-27T05:29:10.258Z,37.58
2018-12-27T05:29:45.780Z,38.02
2018-12-27T05:30:21.109Z,38.20
2018-12-27T05:30:56.960Z,37.53
2018-12-27T05:31:32.481Z,38.75
2018-12-27T05:32:07.806Z,37.78
2018-12-27T05:32:43.427Z,36.00
2018-12-27T05:33:18.919Z,38.35
2018-12-27T05:33:55.845Z,36.85
2018-12-27T05:34:31.361Z,34.33
2018-12-27T05:35:07.011Z,36.45
2018-12-27T05:35:42.556Z,35.52
2018-12-27T05:36:17.872Z,32.93
2018-12-27T05:36:53.414Z,34.10
2018-12-27T05:37:28.955Z,32.73
2018-12-27T05:38:04.562Z,36.85
2018-12-27T05:38:40.142Z,39.23
2018-12-27T05:39:15.650Z,37.70
2018-12-27T05:39:51.701Z,37.67
2018-12-27T05:40:27.058Z,35.55
2018-12-27T05:41:02.598Z,38.30
2018-12-27T05:41:38.282Z,38.53
2018-12-27T05:42:13.973Z,41.75
2018-12-27T05:42:50.366Z,40.38
2018-12-27T05:43:26.027Z,40.20
2018-12-27T05:44:01.351Z,37.90
2018-12-27T05:44:36.669Z,39.42
2018-12-27T05:45:12.245Z,39.15
2018-12-27T05:45:47.798Z,35.48
2018-12-27T05:46:23.386Z,35.38
2018-12-27T05:46:58.797Z,40.03
2018-12-27T05:47:34.446Z,42.50
2018-12-27T05:48:10.067Z,42.05
2018-12-27T05:48:45.678Z,43.63
2018-12-27T05:49:21.228Z,40.00
2018-12-27T05:49:56.787Z,42.30
2018-12-27T05:50:32.507Z,42.10
2018-12-27T05:51:08.040Z,43.52
2018-12-27T05:51:44.366Z,41.58
2018-12-27T05:52:20.007Z,43.00
2018-12-27T05:52:55.496Z,42.60
2018-12-27T05:53:30.755Z,43.00
2018-12-27T05:54:06.194Z,43.55
2018-12-27T05:54:41.735Z,45.20
2018-12-27T05:55:17.334Z,46.28
2018-12-27T05:55:52.835Z,44.93
2018-12-27T05:56:28.668Z,42.13
2018-12-27T05:57:04.491Z,40.83
2018-12-27T05:57:39.935Z,42.15
2018-12-27T05:58:15.645Z,46.30
2018-12-27T05:58:51.369Z,42.43
2018-12-27T05:59:27.063Z,44.65
2018-12-27T06:00:02.563Z,45.75
2018-12-27T06:00:38.222Z,40.63
2018-12-27T06:01:13.655Z,46.77
2018-12-27T06:01:49.155Z,48.20
2018-12-27T06:02:24.735Z,47.00
2018-12-27T06:03:00.236Z,43.98
2018-12-27T06:03:35.773Z,41.45
2018-12-27T06:04:11.199Z,44.70
2018-12-27T06:04:46.679Z,46.30
2018-12-27T06:05:22.179Z,46.50
2018-12-27T06:05:57.777Z,47.60
2018-12-27T06:06:33.218Z,46.00
2018-12-27T06:07:08.742Z,44.50
2018-12-27T06:07:44.378Z,35.20
2018-12-27T06:08:19.835Z,46.98
2018-12-27T06:08:55.441Z,42.93
2018-12-27T06:09:31.071Z,45.03
2018-12-27T06:10:06.913Z,46.48
2018-12-27T06:10:42.390Z,47.98
2018-12-27T06:11:17.809Z,46.70
2018-12-27T06:11:53.318Z,48.13
2018-12-27T06:12:28.841Z,48.73
2018-12-27T06:13:04.382Z,48.95
2018-12-27T06:13:39.824Z,47.25
2018-12-27T06:14:15.360Z,47.60
2018-12-27T06:14:50.913Z,48.90
2018-12-27T06:15:26.438Z,53.85
2018-12-27T06:16:01.976Z,48.28
2018-12-27T06:16:37.486Z,47.40
2018-12-27T06:17:13.167Z,47.43
2018-12-27T06:17:48.704Z,50.03
2018-12-27T06:18:24.327Z,48.13
2018-12-27T06:18:59.806Z,50.50
2018-12-27T06:19:35.259Z,50.92
2018-12-27T06:20:11.284Z,50.23
2018-12-27T06:20:46.975Z,48.75
2018-12-27T06:21:22.579Z,51.73
2018-12-27T06:21:58.130Z,54.83
2018-12-27T06:22:33.720Z,54.00
2018-12-27T06:23:09.130Z,48.73
2018-12-27T06:23:44.590Z,45.90
2018-12-27T06:24:20.049Z,49.88
2018-12-27T06:24:56.218Z,53.70
2018-12-27T06:25:31.723Z,52.15
2018-12-27T06:26:07.149Z,48.78
2018-12-27T06:26:42.696Z,46.33
2018-12-27T06:27:18.128Z,49.83
2018-12-27T06:27:55.268Z,48.52
2018-12-27T06:28:30.904Z,46.83
2018-12-27T06:29:06.779Z,47.20
2018-12-27T06:29:42.159Z,46.65
2018-12-27T06:30:17.735Z,50.85
2018-12-27T06:30:53.382Z,48.05
2018-12-27T06:31:28.910Z,54.10
2018-12-27T06:32:04.625Z,45.65
2018-12-27T06:32:40.151Z,49.93
2018-12-27T06:33:15.872Z,52.62
2018-12-27T06:33:51.872Z,50.03
2018-12-27T06:34:28.087Z,45.38
2018-12-27T06:35:03.742Z,48.00
2018-12-27T06:35:39.258Z,44.85
2018-12-27T06:36:15.094Z,46.45
2018-12-27T06:36:50.537Z,47.60
2018-12-27T06:37:26.063Z,49.73
2018-12-27T06:38:01.462Z,37.53
2018-12-27T06:38:37.027Z,46.25
2018-12-27T06:39:12.461Z,49.20
2018-12-27T06:39:47.897Z,47.95
2018-12-27T06:40:23.346Z,47.15
2018-12-27T06:40:59.263Z,47.35
2018-12-27T06:41:34.852Z,50.50
2018-12-27T06:42:10.228Z,52.90
2018-12-27T06:42:45.748Z,48.13
2018-12-27T06:43:21.297Z,44.42
2018-12-27T06:43:56.733Z,50.75
2018-12-27T06:44:32.148Z,54.50
2018-12-27T06:45:07.562Z,50.33
2018-12-27T06:45:43.043Z,51.30
2018-12-27T06:46:18.432Z,45.03
2018-12-27T06:46:54.070Z,40.70
2018-12-27T06:47:29.618Z,42.98
2018-12-27T06:48:05.730Z,44.48
2018-12-27T06:48:41.299Z,42.75
2018-12-27T06:49:16.799Z,46.80
2018-12-27T06:49:52.163Z,47.15
2018-12-27T06:50:27.712Z,46.80
2018-12-27T06:51:03.398Z,46.23
2018-12-27T06:51:38.749Z,45.58
2018-12-27T06:52:14.263Z,46.00
2018-12-27T06:52:49.894Z,46.65
2018-12-27T06:53:25.446Z,47.65
2018-12-27T06:54:00.991Z,44.58
2018-12-27T06:54:36.386Z,39.03
2018-12-27T06:55:12.384Z,41.53
2018-12-27T06:55:47.888Z,41.33
2018-12-27T06:56:23.421Z,42.45
2018-12-27T06:56:58.954Z,48.40
2018-12-27T06:57:34.449Z,46.48
2018-12-27T06:58:10.023Z,46.02
2018-12-27T06:58:45.550Z,43.35
2018-12-27T06:59:21.224Z,37.93
2018-12-27T06:59:56.836Z,44.15
2018-12-27T07:00:32.487Z,44.77
2018-12-27T07:01:07.974Z,47.53
2018-12-27T07:01:43.505Z,43.38
2018-12-27T07:02:19.228Z,44.30
2018-12-27T07:02:54.880Z,44.45
2018-12-27T07:03:30.443Z,41.37
2018-12-27T07:04:05.864Z,48.40
2018-12-27T07:04:48.758Z,49.03
2018-12-27T07:05:18.455Z,49.63
2018-12-27T07:05:53.772Z,44.90
2018-12-27T07:06:29.337Z,48.95
2018-12-27T07:07:04.850Z,50.05
2018-12-27T07:07:40.266Z,45.28
2018-12-27T07:08:15.866Z,49.10
2018-12-27T07:08:51.346Z,43.98
2018-12-27T07:09:26.980Z,46.58
2018-12-27T07:10:03.048Z,49.00
2018-12-27T07:10:38.467Z,49.10
2018-12-27T07:11:14.088Z,48.13
2018-12-27T07:11:49.606Z,46.85
2018-12-27T07:12:25.071Z,42.78
2018-12-27T07:13:00.502Z,42.10
2018-12-27T07:13:35.966Z,42.62
2018-12-27T07:14:11.568Z,43.87
2018-12-27T07:14:47.098Z,42.43
2018-12-27T07:15:22.622Z,42.65
2018-12-27T07:15:58.245Z,43.05
2018-12-27T07:16:34.082Z,42.33
2018-12-27T07:17:09.428Z,41.88
2018-12-27T07:17:44.738Z,43.55
2018-12-27T07:18:20.298Z,46.75
2018-12-27T07:18:55.868Z,46.58
2018-12-27T07:19:31.746Z,45.50
2018-12-27T07:20:07.445Z,47.98
2018-12-27T07:20:43.021Z,47.55
2018-12-27T07:21:18.696Z,43.73
2018-12-27T07:21:54.227Z,46.00
2018-12-27T07:22:30.183Z,46.33
2018-12-27T07:23:06.117Z,47.60
2018-12-27T07:23:41.653Z,44.15
2018-12-27T07:24:17.166Z,44.23
2018-12-27T07:24:52.586Z,47.00
2018-12-27T07:25:28.018Z,47.55
2018-12-27T07:26:03.660Z,46.73
2018-12-27T07:26:39.131Z,47.45
2018-12-27T07:27:14.708Z,46.45
2018-12-27T07:27:50.184Z,39.80
2018-12-27T07:28:25.707Z,43.23
2018-12-27T07:29:01.294Z,42.05
2018-12-27T07:29:36.847Z,48.00
2018-12-27T07:30:12.875Z,42.23
2018-12-27T07:30:48.503Z,43.48
2018-12-27T07:31:24.976Z,44.00
2018-12-27T07:32:00.410Z,46.85
2018-12-27T07:32:35.963Z,45.33
2018-12-27T07:33:11.459Z,43.02
2018-12-27T07:33:46.919Z,44.77
2018-12-27T07:34:22.486Z,40.52
2018-12-27T07:34:57.995Z,46.13
2018-12-27T07:35:33.387Z,48.35
2018-12-27T07:36:08.803Z,38.88
2018-12-27T07:36:44.235Z,44.25
2018-12-27T07:37:19.781Z,41.70
2018-12-27T07:37:55.193Z,46.92
2018-12-27T07:38:30.566Z,47.00
2018-12-27T07:39:07.296Z,46.75